Time;durP1;ratioP1;P1;durP2;ratioP2;P2;SDS_P1;SDS_P2;PMS_P1;PMS_P2;Temp;Humidity;BMP_temperature;BMP_pressure;BME280_temperature;BME280_humidity;BME280_pressure;Samples;Min_cycle;Max_cycle;Signal;HPM_P1;HPM_P2
2023/10/29 00:01:23;;;;;;;20.10;7.60;;;;;;;0.41;79.57;95967.38;6213428;28;20050;-67
2023/10/29 00:04:24;;;;;;;15.38;6.80;;;;;;;0.42;79.09;95963.88;6216766;28;20043;-68
2023/10/29 00:07:30;;;;;;;14.60;6.70;;;;;;;0.40;79.22;95962.28;6207825;28;20045;-68
2023/10/29 00:10:36;;;;;;;14.68;5.90;;;;;;;0.42;79.41;95957.84;6217630;28;20435;-68
2023/10/29 00:13:38;;;;;;;19.50;6.72;;;;;;;0.40;79.56;95950.16;6215869;28;20042;-68
2023/10/29 00:16:42;;;;;;;14.13;5.47;;;;;;;0.44;79.77;95948.28;6209786;28;20050;-68
2023/10/29 00:19:50;;;;;;;10.50;4.53;;;;;;;0.41;79.96;95946.66;6212964;28;20050;-69
2023/10/29 00:22:54;;;;;;;8.93;4.35;;;;;;;0.39;79.44;95943.28;6216150;28;20041;-68
2023/10/29 00:25:55;;;;;;;6.07;3.95;;;;;;;0.37;79.31;95939.94;6216818;28;20545;-67
2023/10/29 00:28:57;;;;;;;7.25;4.25;;;;;;;0.32;80.08;95941.88;6215461;28;20046;-68
2023/10/29 00:32:01;;;;;;;6.50;4.15;;;;;;;0.27;79.62;95915.31;6209087;28;20502;-68
2023/10/29 00:35:05;;;;;;;7.68;4.45;;;;;;;0.35;79.99;95921.03;6209120;28;20045;-68
2023/10/29 00:38:07;;;;;;;6.43;3.63;;;;;;;0.34;79.79;95914.19;6210041;28;20034;-69
2023/10/29 00:41:08;;;;;;;6.75;3.63;;;;;;;0.28;79.84;95914.41;6216582;28;20044;-69
2023/10/29 00:44:17;;;;;;;5.68;3.28;;;;;;;0.26;80.08;95890.38;6217552;28;20046;-71
2023/10/29 00:47:24;;;;;;;5.72;3.85;;;;;;;0.30;79.97;95901.44;6219325;28;20044;-69
2023/10/29 00:50:30;;;;;;;5.28;3.38;;;;;;;0.27;80.01;95897.22;6216329;28;20073;-70
2023/10/29 00:53:34;;;;;;;4.13;2.85;;;;;;;0.24;80.10;95892.16;6213395;28;20045;-72
2023/10/29 00:56:39;;;;;;;4.22;3.00;;;;;;;0.33;79.68;95886.63;6211602;28;20062;-70
2023/10/29 00:59:41;;;;;;;4.30;3.13;;;;;;;0.18;80.06;95876.88;6216165;28;20049;-70
2023/10/29 01:02:43;;;;;;;5.50;3.53;;;;;;;0.22;80.98;95881.88;6189367;28;20096;-70
2023/10/29 01:05:50;;;;;;;4.10;2.85;;;;;;;0.27;80.87;95881.69;6227768;28;20042;-71
2023/10/29 01:08:56;;;;;;;4.70;2.13;;;;;;;0.26;80.44;95874.84;6216379;28;20046;-70
2023/10/29 01:12:13;;;;;;;2.90;2.30;;;;;;;0.25;80.69;95873.13;6210838;28;20061;-71
2023/10/29 01:15:23;;;;;;;3.17;2.25;;;;;;;0.21;80.71;95871.59;6214597;28;20579;-69
2023/10/29 01:18:29;;;;;;;3.85;2.20;;;;;;;0.27;81.03;95865.31;6216040;28;20030;-70
2023/10/29 01:21:38;;;;;;;5.18;2.42;;;;;;;0.19;81.02;95861.28;6213931;28;20076;-69
2023/10/29 01:24:43;;;;;;;7.57;2.97;;;;;;;0.13;81.13;95833.09;6215494;28;20050;-71
2023/10/29 01:27:44;;;;;;;3.92;2.53;;;;;;;0.24;80.91;95837.84;6227649;28;20132;-70
2023/10/29 01:30:52;;;;;;;5.22;2.67;;;;;;;0.16;81.33;95824.38;6214048;28;20037;-71
2023/10/29 01:33:59;;;;;;;3.72;2.10;;;;;;;0.20;81.38;95825.94;6216025;28;20132;-71
2023/10/29 01:37:03;;;;;;;3.28;2.53;;;;;;;0.21;81.12;95825.03;6190389;28;20042;-70
2023/10/29 01:40:05;;;;;;;3.03;2.30;;;;;;;0.17;81.24;95828.63;6216109;28;20345;-70
2023/10/29 01:43:14;;;;;;;4.68;2.38;;;;;;;0.14;81.23;95824.44;6216705;28;20042;-70
2023/10/29 01:46:21;;;;;;;3.70;2.30;;;;;;;0.15;82.07;95818.34;6216281;28;20049;-70
2023/10/29 01:49:25;;;;;;;3.45;2.33;;;;;;;0.15;81.94;95810.59;6216310;28;22157;-69
2023/10/29 01:52:28;;;;;;;3.08;2.13;;;;;;;0.15;81.28;95794.25;6212230;28;20046;-70
2023/10/29 01:55:30;;;;;;;4.05;2.17;;;;;;;0.18;81.73;95804.47;6212276;28;20580;-71
2023/10/29 01:58:36;;;;;;;2.72;2.25;;;;;;;0.22;81.54;95824.09;6208643;28;20545;-71
2023/10/29 02:01:37;;;;;;;2.55;2.33;;;;;;;0.19;81.70;95826.81;6198721;28;20103;-70
2023/10/29 02:04:41;;;;;;;3.47;2.45;;;;;;;0.25;81.63;95834.31;6212555;28;20196;-71
2023/10/29 02:07:43;;;;;;;3.22;2.22;;;;;;;0.11;81.37;95815.94;6208498;28;20525;-70
2023/10/29 02:10:52;;;;;;;1.80;1.52;;;;;;;0.03;81.23;95799.88;6220232;28;20045;-71
2023/10/29 02:13:56;;;;;;;2.83;2.20;;;;;;;0.14;81.29;95827.03;6210570;28;20039;-70
2023/10/29 02:17:00;;;;;;;2.00;1.40;;;;;;;0.15;81.71;95809.75;6198121;28;20432;-70
2023/10/29 02:20:02;;;;;;;3.00;2.10;;;;;;;0.14;81.59;95802.88;6213760;28;20060;-69
2023/10/29 02:23:06;;;;;;;4.50;2.90;;;;;;;0.10;81.99;95783.22;6209956;28;20073;-71
2023/10/29 02:26:10;;;;;;;;;;;;;;;0.14;82.22;95771.84;6220690;28;20421;-70
2023/10/29 02:29:17;;;;;;;2.22;1.52;;;;;;;0.10;81.90;95772.88;6213421;28;20012;-70
2023/10/29 02:32:23;;;;;;;4.93;2.80;;;;;;;0.13;82.07;95765.00;6216948;28;20042;-69
2023/10/29 02:35:30;;;;;;;3.97;2.75;;;;;;;0.14;81.59;95758.91;6218608;28;20049;-68
2023/10/29 02:38:34;;;;;;;4.68;2.45;;;;;;;0.06;81.89;95758.38;6211068;28;20065;-69
2023/10/29 02:41:38;;;;;;;1.98;1.40;;;;;;;0.16;81.89;95759.69;6218199;28;20433;-69
2023/10/29 02:44:42;;;;;;;8.07;4.68;;;;;;;0.08;82.42;95749.66;6215940;28;20045;-69
2023/10/29 02:47:47;;;;;;;7.40;3.85;;;;;;;0.11;82.25;95746.94;6217760;28;20053;-68
2023/10/29 02:50:56;;;;;;;3.70;2.55;;;;;;;0.16;82.72;95749.34;6217925;28;20034;-68
2023/10/29 02:54:07;;;;;;;3.97;2.15;;;;;;;0.22;82.57;95759.44;6216386;28;20046;-69
2023/10/29 02:57:13;;;;;;;3.17;1.70;;;;;;;0.12;82.54;95761.56;6218534;28;20041;-70
2023/10/29 03:00:17;;;;;;;4.50;2.80;;;;;;;0.18;82.20;95773.41;6218636;28;20041;-69
2023/10/29 03:03:25;;;;;;;3.22;2.13;;;;;;;0.16;82.48;95772.63;6216141;28;20046;-69
2023/10/29 03:06:26;;;;;;;2.42;1.52;;;;;;;0.20;82.69;95787.13;6218014;28;20049;-69
2023/10/29 03:09:31;;;;;;;3.88;1.90;;;;;;;0.21;82.82;95765.53;6214363;28;20052;-67
2023/10/29 03:12:32;;;;;;;2.55;2.03;;;;;;;0.22;82.46;95760.28;6218967;28;20042;-68
2023/10/29 03:15:33;;;;;;;2.88;1.67;;;;;;;0.21;82.45;95744.81;6216828;28;20573;-68
2023/10/29 03:18:38;;;;;;;3.03;2.15;;;;;;;0.20;82.57;95735.41;6214369;28;20061;-67
2023/10/29 03:21:43;;;;;;;2.00;1.55;;;;;;;0.26;82.51;95716.19;6217860;28;20068;-69
2023/10/29 03:24:47;;;;;;;3.30;1.67;;;;;;;0.20;82.75;95706.94;6216458;28;20573;-67
2023/10/29 03:27:53;;;;;;;12.82;6.60;;;;;;;0.22;82.93;95721.47;6218959;28;20041;-71
2023/10/29 03:30:57;;;;;;;3.85;2.47;;;;;;;0.21;82.94;95732.72;6196703;28;20046;-68
2023/10/29 03:33:58;;;;;;;1.83;1.10;;;;;;;0.43;82.35;95752.53;6215555;28;20038;-69
2023/10/29 03:37:00;;;;;;;2.60;1.38;;;;;;;0.30;82.34;95741.84;6210185;28;20041;-68
2023/10/29 03:40:06;;;;;;;1.25;0.80;;;;;;;0.29;82.40;95735.00;6214001;28;20050;-68
2023/10/29 03:43:08;;;;;;;1.98;1.00;;;;;;;0.31;81.99;95743.53;6214924;28;20524;-68
2023/10/29 03:46:11;;;;;;;1.30;1.10;;;;;;;0.22;81.97;95736.97;6211472;28;20428;-69
2023/10/29 03:49:15;;;;;;;4.22;2.75;;;;;;;0.36;82.20;95730.38;6216859;28;20049;-68
2023/10/29 03:52:25;;;;;;;1.60;1.20;;;;;;;0.40;82.10;95750.91;6200333;28;20042;-68
2023/10/29 03:55:31;;;;;;;1.45;0.90;;;;;;;0.23;82.30;95745.63;6206659;28;20054;-69
2023/10/29 03:58:33;;;;;;;1.38;1.17;;;;;;;0.17;83.18;95741.53;6209423;28;20069;-68
2023/10/29 04:01:36;;;;;;;4.20;1.58;;;;;;;0.21;82.95;95731.91;6194563;28;20517;-69
2023/10/29 04:04:37;;;;;;;1.92;1.05;;;;;;;0.26;83.27;95739.47;6210214;28;20046;-69
2023/10/29 04:07:44;;;;;;;1.00;0.90;;;;;;;0.34;83.02;95732.19;6211562;28;20046;-70
2023/10/29 04:10:48;;;;;;;1.95;1.10;;;;;;;0.30;83.47;95744.44;6181592;28;20670;-69
2023/10/29 04:13:49;;;;;;;0.60;0.60;;;;;;;0.26;83.86;95734.28;6217354;28;20053;-70
2023/10/29 04:16:56;;;;;;;1.15;1.05;;;;;;;0.33;83.51;95715.84;6214668;28;20476;-70
2023/10/29 04:20:01;;;;;;;0.80;0.70;;;;;;;0.27;84.18;95715.28;6217161;28;20050;-69
2023/10/29 04:23:08;;;;;;;1.17;1.00;;;;;;;0.27;84.53;95716.09;6215932;28;20034;-69
2023/10/29 04:26:17;;;;;;;1.25;1.08;;;;;;;0.29;84.59;95683.25;6217086;28;20195;-69
2023/10/29 04:29:23;;;;;;;2.42;1.02;;;;;;;0.35;85.24;95701.09;6216713;28;20053;-70
2023/10/29 04:32:28;;;;;;;1.40;0.93;;;;;;;0.43;84.99;95704.19;6214500;28;20046;-69
2023/10/29 04:35:32;;;;;;;1.27;0.85;;;;;;;0.43;84.97;95714.53;6216007;28;20478;-70
2023/10/29 04:38:40;;;;;;;0.65;0.60;;;;;;;0.48;84.88;95713.50;6210893;28;20073;-69
2023/10/29 04:41:46;;;;;;;2.15;0.50;;;;;;;0.52;84.57;95712.47;6209708;28;20133;-69
2023/10/29 04:44:50;;;;;;;1.85;0.65;;;;;;;0.50;83.73;95691.81;6216877;28;20579;-69
2023/10/29 04:47:52;;;;;;;0.95;0.93;;;;;;;0.44;84.71;95687.75;6213644;28;20053;-69
2023/10/29 04:50:56;;;;;;;0.80;0.77;;;;;;;0.50;84.32;95685.81;6214439;28;20041;-68
2023/10/29 04:54:02;;;;;;;1.00;0.88;;;;;;;0.71;84.68;95684.84;6210825;28;20050;-69
2023/10/29 04:57:13;;;;;;;0.85;0.70;;;;;;;0.67;84.50;95683.28;6215928;28;20056;-69
2023/10/29 05:00:15;;;;;;;3.25;1.90;;;;;;;0.68;84.25;95664.28;6209371;28;20156;-69
2023/10/29 05:03:22;;;;;;;2.92;1.92;;;;;;;0.69;84.85;95670.31;6213688;28;20195;-69
2023/10/29 05:06:25;;;;;;;1.60;1.10;;;;;;;0.72;85.38;95655.47;6216012;28;20124;-69
2023/10/29 05:09:32;;;;;;;2.85;2.05;;;;;;;0.91;85.21;95650.28;6212825;28;20157;-69
2023/10/29 05:12:34;;;;;;;2.67;2.05;;;;;;;1.00;85.87;95655.03;6211285;28;20049;-70
2023/10/29 05:15:42;;;;;;;1.30;1.10;;;;;;;1.07;85.54;95650.38;6227933;28;20477;-70
2023/10/29 05:18:43;;;;;;;1.42;0.88;;;;;;;1.14;85.37;95635.41;6214628;28;20549;-68
2023/10/29 05:21:47;;;;;;;1.90;1.40;;;;;;;1.15;85.28;95657.81;6221983;28;20049;-69
2023/10/29 05:24:52;;;;;;;2.83;1.65;;;;;;;1.07;85.79;95624.50;6215003;28;20109;-68
2023/10/29 05:27:56;;;;;;;1.33;1.15;;;;;;;1.05;85.92;95626.34;6236795;28;20049;-69
2023/10/29 05:30:58;;;;;;;2.33;1.50;;;;;;;1.15;85.29;95647.44;6215043;28;20046;-68
2023/10/29 05:34:07;;;;;;;2.05;1.02;;;;;;;1.11;85.83;95626.88;6220816;28;20453;-70
2023/10/29 05:37:12;;;;;;;2.10;1.33;;;;;;;1.14;85.72;95631.06;6221634;28;20104;-68
2023/10/29 05:40:16;;;;;;;3.33;2.22;;;;;;;1.12;85.96;95607.81;6213101;28;20061;-66
2023/10/29 05:43:22;;;;;;;1.40;1.17;;;;;;;1.20;85.99;95620.41;6216293;28;20421;-68
2023/10/29 05:46:29;;;;;;;2.88;1.80;;;;;;;1.24;85.53;95621.94;6215987;28;20054;-66
2023/10/29 05:49:33;;;;;;;2.38;1.83;;;;;;;1.26;85.94;95614.09;6220667;28;20044;-66
2023/10/29 05:52:34;;;;;;;2.35;1.30;;;;;;;1.28;86.06;95602.75;6220336;28;20132;-66
2023/10/29 05:55:43;;;;;;;2.35;1.48;;;;;;;1.24;85.63;95600.38;6220624;28;20133;-66
2023/10/29 05:58:49;;;;;;;13.57;7.25;;;;;;;1.29;86.02;95593.22;6215529;28;20050;-68
2023/10/29 06:01:53;;;;;;;5.18;2.97;;;;;;;1.21;86.14;95580.63;6206154;28;20726;-64
2023/10/29 06:04:59;;;;;;;2.20;1.50;;;;;;;1.43;86.29;95579.56;6217445;28;20055;-65
2023/10/29 06:08:05;;;;;;;5.50;2.90;;;;;;;1.50;86.13;95575.75;6218271;28;20041;-66
2023/10/29 06:11:10;;;;;;;1.50;1.10;;;;;;;1.56;85.69;95588.44;6219489;28;20129;-66
2023/10/29 06:14:14;;;;;;;1.90;1.05;;;;;;;1.55;85.67;95589.31;6220499;28;20473;-69
2023/10/29 06:17:21;;;;;;;7.63;3.80;;;;;;;1.63;86.03;95589.78;6211232;28;20045;-78
2023/10/29 06:20:28;;;;;;;2.22;1.10;;;;;;;1.80;86.29;95582.00;6227394;28;20042;-77
2023/10/29 06:23:37;;;;;;;4.18;2.15;;;;;;;1.79;86.03;95561.34;6228540;28;20053;-71
2023/10/29 06:26:39;;;;;;;1.63;1.15;;;;;;;1.80;85.70;95550.88;6216462;28;20042;-69
2023/10/29 06:29:47;;;;;;;7.55;4.00;;;;;;;1.93;86.00;95552.84;6219028;28;20048;-75
2023/10/29 06:32:51;;;;;;;3.70;1.98;;;;;;;1.96;86.15;95534.53;6213697;28;20048;-71
2023/10/29 06:35:58;;;;;;;4.20;2.33;;;;;;;2.01;85.65;95545.50;6212047;28;20414;-71
2023/10/29 06:39:02;;;;;;;1.73;1.23;;;;;;;2.02;85.66;95531.59;6211681;28;20037;-71
2023/10/29 06:42:11;;;;;;;2.63;1.77;;;;;;;2.17;85.79;95553.31;6223502;28;20044;-66
2023/10/29 06:45:14;;;;;;;2.75;1.77;;;;;;;2.19;85.60;95548.88;6218216;28;20058;-66
2023/10/29 06:48:27;;;;;;;2.67;1.60;;;;;;;2.25;85.89;95541.59;6221169;28;20046;-67
2023/10/29 06:51:29;;;;;;;4.18;2.95;;;;;;;2.39;86.06;95537.44;6213209;28;20189;-72
2023/10/29 06:54:31;;;;;;;2.42;1.63;;;;;;;2.34;85.52;95526.47;6201793;28;20053;-68
2023/10/29 06:57:36;;;;;;;4.68;2.47;;;;;;;2.34;85.64;95523.84;6215594;28;20034;-67
2023/10/29 07:00:40;;;;;;;2.17;1.25;;;;;;;2.30;85.48;95520.59;6222089;28;20044;-69
2023/10/29 07:03:46;;;;;;;1.00;0.95;;;;;;;2.41;85.69;95518.25;6213206;28;20092;-69
2023/10/29 07:06:49;;;;;;;1.27;1.05;;;;;;;2.45;85.40;95509.38;6209602;28;20046;-69
2023/10/29 07:09:52;;;;;;;1.17;0.95;;;;;;;2.65;85.63;95516.06;6181949;28;20049;-69
2023/10/29 07:12:59;;;;;;;6.85;4.45;;;;;;;2.75;85.23;95523.38;6216727;28;20112;-68
2023/10/29 07:16:04;;;;;;;2.75;1.75;;;;;;;2.65;84.93;95497.06;6212939;28;20049;-76
2023/10/29 07:19:11;;;;;;;3.33;1.45;;;;;;;2.48;85.28;95479.81;6213124;28;20045;-72
2023/10/29 07:22:14;;;;;;;1.90;1.52;;;;;;;2.39;85.17;95473.38;6212598;28;20053;-70
2023/10/29 07:25:18;;;;;;;1.27;0.90;;;;;;;2.29;85.10;95482.56;6218050;28;20057;-71
2023/10/29 07:28:23;;;;;;;7.55;4.28;;;;;;;2.23;85.31;95468.16;6211095;28;20403;-71
2023/10/29 07:31:25;;;;;;;4.35;1.85;;;;;;;2.26;85.28;95472.34;6189798;28;20049;-71
2023/10/29 07:34:28;;;;;;;;;;;;;;;2.30;85.12;95462.66;6201246;28;20042;-72
2023/10/29 07:37:35;;;;;;;1.48;1.00;;;;;;;2.28;85.62;95452.34;6211562;28;20293;-70
2023/10/29 07:40:46;;;;;;;4.28;2.72;;;;;;;2.22;85.37;95455.28;6210697;28;20046;-71
2023/10/29 07:43:49;;;;;;;1.67;1.42;;;;;;;2.31;85.65;95464.34;6203389;28;20041;-71
2023/10/29 07:46:55;;;;;;;29.92;16.40;;;;;;;2.20;85.66;95452.75;6210653;28;20493;-72
2023/10/29 07:49:57;;;;;;;8.15;3.47;;;;;;;2.29;85.68;95442.81;6206244;28;20046;-71
2023/10/29 07:53:01;;;;;;;5.15;2.90;;;;;;;2.39;85.66;95436.19;6214277;28;20133;-70
2023/10/29 07:56:11;;;;;;;5.43;3.30;;;;;;;2.57;85.85;95434.31;6209801;28;20130;-69
2023/10/29 07:59:13;;;;;;;3.47;1.20;;;;;;;2.57;85.53;95414.38;6215354;28;20437;-70
2023/10/29 08:02:21;;;;;;;4.22;1.88;;;;;;;2.48;85.04;95430.47;6210480;28;20046;-71
2023/10/29 08:05:26;;;;;;;3.40;1.40;;;;;;;2.45;85.35;95417.69;6216573;28;20572;-71
2023/10/29 08:08:33;;;;;;;2.67;0.85;;;;;;;2.56;85.54;95412.72;6217492;28;20041;-71
2023/10/29 08:11:35;;;;;;;4.53;1.30;;;;;;;2.66;85.46;95416.47;6214450;28;20473;-69
2023/10/29 08:14:42;;;;;;;1.60;0.75;;;;;;;2.69;85.66;95411.09;6212192;28;20418;-70
2023/10/29 08:17:47;;;;;;;19.65;11.13;;;;;;;2.76;85.05;95419.38;6216664;28;20429;-70
2023/10/29 08:20:49;;;;;;;7.60;4.07;;;;;;;2.52;85.20;95390.47;6217368;28;20053;-70
2023/10/29 08:23:53;;;;;;;4.25;1.73;;;;;;;2.76;85.51;95402.97;6212665;28;20421;-70
2023/10/29 08:26:57;;;;;;;1.67;1.27;;;;;;;2.89;85.33;95401.34;6193116;28;20425;-69
2023/10/29 08:30:01;;;;;;;2.55;1.08;;;;;;;3.00;85.09;95395.50;6216959;28;20045;-70
2023/10/29 08:33:06;;;;;;;1.67;1.10;;;;;;;2.99;85.09;95394.66;6215637;28;20112;-70
2023/10/29 08:36:08;;;;;;;1.73;1.30;;;;;;;2.91;84.88;95396.88;6216634;28;20053;-72
2023/10/29 08:39:09;;;;;;;1.58;1.00;;;;;;;2.81;84.81;95411.31;6217066;28;20539;-70
2023/10/29 08:42:13;;;;;;;3.05;1.70;;;;;;;2.82;85.17;95389.59;6216243;28;20656;-71
2023/10/29 08:45:15;;;;;;;17.10;10.65;;;;;;;2.79;84.86;95397.59;6216415;28;20268;-70
2023/10/29 08:48:19;;;;;;;10.57;5.32;;;;;;;2.79;85.02;95400.19;6216218;28;20038;-69
2023/10/29 08:51:23;;;;;;;3.53;2.33;;;;;;;2.78;84.66;95380.34;6229377;28;20432;-70
2023/10/29 08:54:27;;;;;;;2.08;1.50;;;;;;;2.75;84.83;95375.31;6206781;28;20046;-69
2023/10/29 08:57:35;;;;;;;2.95;2.05;;;;;;;2.88;84.88;95371.91;6209067;28;20057;-70
2023/10/29 09:00:36;;;;;;;2.25;1.40;;;;;;;2.92;84.91;95378.59;6216707;28;20655;-70
2023/10/29 09:03:40;;;;;;;1.70;1.17;;;;;;;2.84;84.76;95388.59;6216927;28;20509;-70
2023/10/29 09:06:45;;;;;;;23.05;14.50;;;;;;;2.72;84.38;95380.66;6212141;28;20042;-70
2023/10/29 09:09:49;;;;;;;3.03;2.25;;;;;;;2.64;84.75;95365.53;6216381;28;20527;-70
2023/10/29 09:12:52;;;;;;;11.02;6.28;;;;;;;2.60;84.54;95374.41;6216529;28;20045;-70
2023/10/29 09:15:57;;;;;;;5.32;3.10;;;;;;;2.52;84.45;95369.69;6214012;28;20595;-70
2023/10/29 09:18:59;;;;;;;3.08;1.75;;;;;;;2.54;84.78;95352.25;6216311;28;20042;-70
2023/10/29 09:22:04;;;;;;;3.20;1.55;;;;;;;2.54;85.14;95356.59;6216634;28;20049;-69
2023/10/29 09:25:05;;;;;;;3.28;1.35;;;;;;;2.44;85.00;95351.94;6226256;28;20508;-70
2023/10/29 09:28:11;;;;;;;;;;;;;;;2.39;84.29;95353.13;6217158;28;20203;-69
2023/10/29 09:31:16;;;;;;;2.47;1.33;;;;;;;2.34;84.95;95350.78;6216359;28;20067;-69
2023/10/29 09:34:20;;;;;;;7.13;4.00;;;;;;;2.37;84.89;95344.59;6216209;28;20086;-70
2023/10/29 09:37:24;;;;;;;3.38;2.00;;;;;;;2.50;85.25;95335.19;6209604;28;20046;-70
2023/10/29 09:40:26;;;;;;;2.83;1.85;;;;;;;2.56;85.21;95328.78;6215823;28;20137;-69
2023/10/29 09:43:32;;;;;;;6.38;3.17;;;;;;;2.56;84.99;95331.41;6215824;28;20500;-70
2023/10/29 09:46:37;;;;;;;2.42;2.13;;;;;;;2.59;85.17;95329.44;6212926;28;20037;-70
2023/10/29 09:49:46;;;;;;;2.42;1.60;;;;;;;2.55;84.97;95324.50;6213450;28;20038;-70
2023/10/29 09:52:54;;;;;;;3.55;1.88;;;;;;;2.59;85.01;95307.84;6214412;28;20057;-70
2023/10/29 09:55:59;;;;;;;18.08;9.35;;;;;;;2.61;84.71;95299.03;6215743;28;20159;-70
2023/10/29 09:59:06;;;;;;;4.43;2.22;;;;;;;2.75;84.93;95277.44;6207819;28;20050;-70
2023/10/29 10:02:10;;;;;;;4.43;2.17;;;;;;;3.00;84.94;95281.16;6215055;28;20050;-69
2023/10/29 10:05:18;;;;;;;5.97;3.17;;;;;;;2.96;84.65;95298.72;6216372;28;20045;-69
2023/10/29 10:08:30;;;;;;;7.38;3.60;;;;;;;2.92;84.50;95305.03;6220282;28;20041;-70
2023/10/29 10:11:34;;;;;;;5.75;3.20;;;;;;;2.86;84.56;95305.38;6218992;28;20042;-70
2023/10/29 10:14:38;;;;;;;;;;;;;;;2.91;84.37;95318.91;6218834;28;20049;-69
2023/10/29 10:17:58;;;;;;;3.05;2.05;;;;;;;2.69;84.32;95283.84;6219091;28;19921;-69
2023/10/29 10:21:00;;;;;;;4.05;2.17;;;;;;;2.62;84.35;95266.94;6202177;28;20581;-70
2023/10/29 10:24:02;;;;;;;4.82;2.35;;;;;;;2.66;84.61;95273.66;6219762;28;20049;-69
2023/10/29 10:27:06;;;;;;;3.97;2.65;;;;;;;2.64;84.62;95278.09;6219279;28;20188;-69
2023/10/29 10:30:23;;;;;;;3.53;2.65;;;;;;;2.60;84.76;95276.56;6219735;28;20053;-69
2023/10/29 10:33:32;;;;;;;6.28;3.78;;;;;;;2.51;84.76;95284.91;6219579;28;20050;-70
2023/10/29 10:36:38;;;;;;;4.70;3.15;;;;;;;2.49;84.80;95291.94;6217698;28;20046;-69
2023/10/29 10:39:41;;;;;;;5.22;2.70;;;;;;;2.39;84.67;95301.22;6233589;28;20063;-70
2023/10/29 10:42:55;;;;;;;6.88;2.60;;;;;;;2.38;84.57;95325.50;6219573;28;20053;-70
2023/10/29 10:45:58;;;;;;;3.55;1.88;;;;;;;2.39;84.80;95317.63;6219572;28;20632;-70
2023/10/29 10:49:04;;;;;;;2.55;1.92;;;;;;;2.35;85.17;95310.94;6218883;28;20046;-70
2023/10/29 10:52:16;;;;;;;3.28;2.13;;;;;;;2.33;84.61;95311.94;6216513;28;20497;-69
2023/10/29 10:55:20;;;;;;;18.10;9.07;;;;;;;2.35;85.13;95289.31;6218983;28;20050;-69
2023/10/29 10:58:22;;;;;;;5.18;2.72;;;;;;;2.35;84.87;95265.97;6212436;28;20045;-70
2023/10/29 11:01:26;;;;;;;3.25;1.95;;;;;;;2.42;84.85;95269.88;6218001;28;21985;-70
2023/10/29 11:04:30;;;;;;;3.10;2.22;;;;;;;2.45;85.01;95260.16;6218552;28;20132;-70
2023/10/29 11:07:32;;;;;;;;;;;;;;;2.57;85.07;95258.59;6219990;28;20064;-69
2023/10/29 11:10:38;;;;;;;2.53;1.73;;;;;;;2.58;85.36;95260.28;6218926;28;20386;-70
2023/10/29 11:13:40;;;;;;;3.53;1.52;;;;;;;2.46;84.92;95253.19;6218586;28;20033;-69
2023/10/29 11:16:54;;;;;;;4.05;2.08;;;;;;;2.35;85.12;95252.97;6218550;28;20037;-70
2023/10/29 11:20:00;;;;;;;2.65;1.70;;;;;;;2.26;85.04;95238.78;6215825;28;20050;-70
2023/10/29 11:23:21;;;;;;;5.43;1.90;;;;;;;2.27;85.13;95245.66;6213620;28;20048;-69
2023/10/29 11:26:27;;;;;;;2.17;1.98;;;;;;;2.23;85.30;95242.38;6218084;28;20038;-70
2023/10/29 11:29:43;;;;;;;2.05;1.77;;;;;;;2.30;85.37;95239.47;6218397;28;20050;-70
2023/10/29 11:32:46;;;;;;;5.90;1.63;;;;;;;2.31;85.29;95231.56;6217393;28;20057;-70
2023/10/29 11:36:07;;;;;;;2.67;1.33;;;;;;;2.21;85.11;95220.06;6218105;28;20084;-70
2023/10/29 11:39:15;;;;;;;6.28;1.67;;;;;;;2.10;85.07;95233.66;6216318;28;20072;-70
2023/10/29 11:42:29;;;;;;;5.53;2.88;;;;;;;1.98;85.13;95229.16;6211054;28;20050;-70
2023/10/29 11:45:33;;;;;;;6.75;2.92;;;;;;;2.00;85.40;95229.91;6216410;28;20041;-70
2023/10/29 11:49:03;;;;;;;3.50;2.00;;;;;;;2.05;85.69;95230.50;6216541;28;20046;-70
2023/10/29 11:52:07;;;;;;;3.45;2.47;;;;;;;2.00;85.67;95232.50;6214944;28;20053;-69
2023/10/29 11:55:16;;;;;;;5.82;2.78;;;;;;;2.03;85.70;95238.34;6215618;28;20524;-69
2023/10/29 11:58:24;;;;;;;4.53;2.85;;;;;;;2.08;85.89;95242.47;6215531;28;20073;-70
2023/10/29 12:01:31;;;;;;;7.85;3.80;;;;;;;2.10;85.82;95233.66;6211014;28;20133;-71
2023/10/29 12:04:37;;;;;;;4.00;2.38;;;;;;;2.08;86.08;95230.31;6217238;28;20045;-69
2023/10/29 12:07:45;;;;;;;4.15;2.38;;;;;;;2.03;85.66;95242.72;6217243;28;20041;-70
2023/10/29 12:10:53;;;;;;;12.80;6.57;;;;;;;2.03;86.14;95242.72;6217286;28;20054;-70
2023/10/29 12:14:00;;;;;;;12.60;5.57;;;;;;;1.96;85.75;95236.22;6209997;28;20038;-70
2023/10/29 12:17:09;;;;;;;14.80;8.77;;;;;;;1.98;85.95;95230.03;6217450;28;20048;-72
2023/10/29 12:20:28;;;;;;;8.98;5.18;;;;;;;1.96;85.85;95225.84;6210347;28;20045;-70
2023/10/29 12:23:32;;;;;;;4.35;2.53;;;;;;;1.91;86.42;95207.94;6215568;28;20547;-69
2023/10/29 12:26:42;;;;;;;5.53;2.78;;;;;;;2.03;86.14;95214.16;6213867;28;20049;-70
2023/10/29 12:29:46;;;;;;;3.13;2.17;;;;;;;2.07;86.26;95218.28;6214878;28;20046;-71
2023/10/29 12:33:19;;;;;;;3.70;2.72;;;;;;;2.11;86.31;95224.94;6217294;28;20038;-72
2023/10/29 12:36:23;;;;;;;4.28;2.83;;;;;;;2.12;86.22;95221.41;6216563;28;20046;-70
2023/10/29 12:39:24;;;;;;;5.03;2.85;;;;;;;2.15;86.30;95210.88;6216647;28;20069;-70
2023/10/29 12:42:54;;;;;;;9.57;5.28;;;;;;;2.20;86.62;95197.63;6204757;28;20496;-70
2023/10/29 12:46:03;;;;;;;6.90;4.47;;;;;;;2.15;86.11;95197.91;6217218;28;20056;-69
2023/10/29 12:49:10;;;;;;;5.38;3.60;;;;;;;2.13;86.22;95185.94;6215895;28;20124;-71
2023/10/29 12:52:14;;;;;;;7.57;4.28;;;;;;;2.09;86.33;95185.28;6216818;28;20121;-70
2023/10/29 12:55:15;;;;;;;5.53;3.13;;;;;;;2.13;86.60;95191.97;6216621;28;21054;-70
2023/10/29 12:58:21;;;;;;;5.20;2.50;;;;;;;1.96;86.06;95169.59;6217057;28;20497;-70
2023/10/29 13:01:35;;;;;;;5.93;3.55;;;;;;;2.06;86.50;95184.63;6215941;28;20061;-71
2023/10/29 13:04:39;;;;;;;;;;;;;;;2.08;86.35;95183.63;6210423;28;20050;-69
2023/10/29 13:07:43;;;;;;;6.30;3.00;;;;;;;1.98;86.23;95177.28;6215979;28;20437;-70
2023/10/29 13:10:47;;;;;;;4.85;2.75;;;;;;;1.98;86.31;95172.09;6215484;28;20132;-71
2023/10/29 13:13:51;;;;;;;6.13;2.58;;;;;;;1.95;86.19;95172.28;6216574;28;20632;-70
2023/10/29 13:16:56;;;;;;;5.82;2.65;;;;;;;1.94;86.31;95165.44;6216628;28;20549;-70
2023/10/29 13:19:59;;;;;;;3.83;2.13;;;;;;;1.89;86.15;95163.09;6216834;28;20409;-69
2023/10/29 13:23:01;;;;;;;2.92;1.85;;;;;;;1.83;86.18;95160.03;6210868;28;20046;-70
2023/10/29 13:26:02;;;;;;;4.43;2.40;;;;;;;1.84;85.93;95164.28;6216514;28;20056;-70
2023/10/29 13:29:06;;;;;;;3.95;2.38;;;;;;;1.75;86.28;95163.88;6216254;28;20042;-70
2023/10/29 13:32:08;;;;;;;6.40;2.90;;;;;;;1.63;85.96;95136.06;6216710;28;20045;-70
2023/10/29 13:35:16;;;;;;;4.70;2.35;;;;;;;1.74;86.14;95158.78;6216298;28;20046;-71
2023/10/29 13:38:21;;;;;;;5.90;3.72;;;;;;;1.74;86.32;95148.44;6215531;28;20572;-70
2023/10/29 13:41:23;;;;;;;12.27;7.70;;;;;;;1.84;86.48;95148.72;6220073;28;20045;-70
2023/10/29 13:44:26;;;;;;;14.32;9.50;;;;;;;1.93;86.54;95140.41;6220304;28;20211;-70
2023/10/29 13:47:36;;;;;;;10.27;5.20;;;;;;;1.89;87.00;95120.75;6227688;28;20096;-70
2023/10/29 13:50:46;;;;;;;11.93;7.47;;;;;;;1.99;87.06;95140.06;6202879;28;20132;-70
2023/10/29 13:53:53;;;;;;;7.30;3.47;;;;;;;1.98;86.90;95138.38;6220201;28;20184;-70
2023/10/29 13:57:07;;;;;;;7.43;3.35;;;;;;;2.03;87.06;95154.50;6214907;28;20045;-69
2023/10/29 14:00:09;;;;;;;4.93;3.10;;;;;;;2.02;86.89;95147.66;6220934;28;20038;-70
2023/10/29 14:03:16;;;;;;;5.53;3.15;;;;;;;2.01;87.13;95143.41;6219829;28;20520;-70
2023/10/29 14:06:18;;;;;;;;;;;;;;;2.03;86.76;95141.53;6214379;28;20407;-70
2023/10/29 14:09:24;;;;;;;7.72;3.45;;;;;;;2.00;86.62;95139.13;6220273;28;19921;-70
2023/10/29 14:12:35;;;;;;;6.43;3.22;;;;;;;1.94;86.51;95137.72;6202666;28;20046;-70
2023/10/29 14:15:40;;;;;;;4.57;3.13;;;;;;;1.94;86.47;95134.31;6219671;28;20145;-71
2023/10/29 14:18:46;;;;;;;3.75;3.05;;;;;;;1.99;86.76;95137.47;6219111;28;20056;-71
2023/10/29 14:21:52;;;;;;;5.75;3.13;;;;;;;1.99;86.88;95133.09;6234713;28;20129;-71
2023/10/29 14:24:58;;;;;;;7.95;5.20;;;;;;;2.05;87.03;95131.91;6219909;28;20042;-70
2023/10/29 14:28:04;;;;;;;6.05;3.55;;;;;;;2.09;86.77;95125.59;6220055;28;20042;-71
2023/10/29 14:31:06;;;;;;;27.08;15.38;;;;;;;2.09;86.99;95117.00;6212472;28;20064;-70
2023/10/29 14:34:08;;;;;;;16.00;9.25;;;;;;;2.14;87.01;95114.97;6219350;28;20133;-70
2023/10/29 14:37:12;;;;;;;32.10;17.67;;;;;;;2.20;87.13;95122.38;6219226;28;20053;-70
2023/10/29 14:40:14;;;;;;;8.63;5.93;;;;;;;2.21;87.13;95117.09;6219403;28;20151;-69
2023/10/29 14:43:16;;;;;;;7.72;4.32;;;;;;;2.28;87.17;95121.91;6218892;28;20105;-70